sensor_id;sensor_type;location;lat;lon;timestamp;pressure;altitude;pressure_sealevel;temperature;humidity
22025;BME280;11176;51.448;6.650;2023-08-12T00:01:51;43272.59;;;-141.29;100.00
22025;BME280;11176;51.448;6.650;2023-08-12T00:04:17;43266.59;;;-141.29;100.00
22025;BME280;11176;51.448;6.650;2023-08-12T00:06:44;43278.59;;;-141.29;100.00
22025;BME280;11176;51.448;6.650;2023-08-12T00:09:10;43272.59;;;-141.29;100.00
22025;BME280;11176;51.448;6.650;2023-08-12T00:11:38;43280.59;;;-141.29;100.00
22025;BME280;11176;51.448;6.650;2023-08-12T00:14:04;43286.56;;;-141.29;100.00
22025;BME280;11176;51.448;6.650;2023-08-12T00:16:31;43284.56;;;-141.29;100.00
22025;BME280;11176;51.448;6.650;2023-08-12T00:18:58;43280.59;;;-141.29;100.00
22025;BME280;11176;51.448;6.650;2023-08-12T00:21:25;43280.59;;;-141.29;100.00
22025;BME280;11176;51.448;6.650;2023-08-12T00:23:52;43276.59;;;-141.29;100.00
22025;BME280;11176;51.448;6.650;2023-08-12T00:26:18;43296.56;;;-141.29;100.00
22025;BME280;11176;51.448;6.650;2023-08-12T00:28:48;43286.56;;;-141.29;100.00
22025;BME280;11176;51.448;6.650;2023-08-12T00:31:15;43280.59;;;-141.29;100.00
22025;BME280;11176;51.448;6.650;2023-08-12T00:33:41;43282.59;;;-141.29;100.00
22025;BME280;11176;51.448;6.650;2023-08-12T00:36:08;43268.59;;;-141.29;100.00
22025;BME280;11176;51.448;6.650;2023-08-12T00:38:35;43300.56;;;-141.29;100.00
22025;BME280;11176;51.448;6.650;2023-08-12T00:41:01;43300.56;;;-141.29;100.00
22025;BME280;11176;51.448;6.650;2023-08-12T00:43:28;43282.59;;;-141.29;100.00
22025;BME280;11176;51.448;6.650;2023-08-12T00:45:55;43306.53;;;-141.29;100.00
22025;BME280;11176;51.448;6.650;2023-08-12T00:48:22;43298.56;;;-141.29;100.00
22025;BME280;11176;51.448;6.650;2023-08-12T00:50:49;43292.56;;;-141.29;100.00
22025;BME280;11176;51.448;6.650;2023-08-12T00:53:16;43308.53;;;-141.29;100.00
22025;BME280;11176;51.448;6.650;2023-08-12T00:55:43;43300.56;;;-141.29;100.00
22025;BME280;11176;51.448;6.650;2023-08-12T00:58:10;43300.56;;;-141.29;100.00
22025;BME280;11176;51.448;6.650;2023-08-12T01:00:40;43308.53;;;-141.29;100.00
22025;BME280;11176;51.448;6.650;2023-08-12T01:03:07;43312.53;;;-141.29;100.00
22025;BME280;11176;51.448;6.650;2023-08-12T01:05:34;43304.56;;;-141.29;100.00
22025;BME280;11176;51.448;6.650;2023-08-12T01:08:01;43296.56;;;-141.29;100.00
22025;BME280;11176;51.448;6.650;2023-08-12T01:10:33;43310.53;;;-141.29;100.00
22025;BME280;11176;51.448;6.650;2023-08-12T01:13:14;43312.53;;;-141.29;100.00
22025;BME280;11176;51.448;6.650;2023-08-12T01:15:43;43312.53;;;-141.29;100.00
22025;BME280;11176;51.448;6.650;2023-08-12T01:18:11;43292.56;;;-141.29;100.00
22025;BME280;11176;51.448;6.650;2023-08-12T01:20:38;43312.53;;;-141.29;100.00
22025;BME280;11176;51.448;6.650;2023-08-12T01:23:09;43320.53;;;-141.29;100.00
22025;BME280;11176;51.448;6.650;2023-08-12T01:25:36;43310.53;;;-141.29;100.00
22025;BME280;11176;51.448;6.650;2023-08-12T01:28:03;43322.53;;;-141.29;100.00
22025;BME280;11176;51.448;6.650;2023-08-12T01:30:30;43328.50;;;-141.29;100.00
22025;BME280;11176;51.448;6.650;2023-08-12T01:33:02;43316.53;;;-141.29;100.00
22025;BME280;11176;51.448;6.650;2023-08-12T01:35:48;43318.53;;;-141.29;100.00
22025;BME280;11176;51.448;6.650;2023-08-12T01:38:17;43328.50;;;-141.29;100.00
22025;BME280;11176;51.448;6.650;2023-08-12T01:40:46;43308.53;;;-141.29;100.00
22025;BME280;11176;51.448;6.650;2023-08-12T01:43:13;43302.56;;;-141.29;100.00
22025;BME280;11176;51.448;6.650;2023-08-12T01:45:41;43316.53;;;-141.29;100.00
22025;BME280;11176;51.448;6.650;2023-08-12T01:48:08;43326.53;;;-141.29;100.00
22025;BME280;11176;51.448;6.650;2023-08-12T01:50:35;43324.53;;;-141.29;100.00
22025;BME280;11176;51.448;6.650;2023-08-12T01:53:01;43326.53;;;-141.29;100.00
22025;BME280;11176;51.448;6.650;2023-08-12T01:55:29;43324.53;;;-141.29;100.00
22025;BME280;11176;51.448;6.650;2023-08-12T01:57:55;43314.53;;;-141.29;100.00
22025;BME280;11176;51.448;6.650;2023-08-12T02:00:23;43326.53;;;-141.29;100.00
22025;BME280;11176;51.448;6.650;2023-08-12T02:02:49;43320.53;;;-141.29;100.00
22025;BME280;11176;51.448;6.650;2023-08-12T02:05:16;43336.50;;;-141.29;100.00
22025;BME280;11176;51.448;6.650;2023-08-12T02:07:43;43328.50;;;-141.29;100.00
22025;BME280;11176;51.448;6.650;2023-08-12T02:10:09;43336.50;;;-141.29;100.00
22025;BME280;11176;51.448;6.650;2023-08-12T02:12:36;43336.50;;;-141.29;100.00
22025;BME280;11176;51.448;6.650;2023-08-12T02:15:03;43332.50;;;-141.29;100.00
22025;BME280;11176;51.448;6.650;2023-08-12T02:17:30;43342.50;;;-141.29;100.00
22025;BME280;11176;51.448;6.650;2023-08-12T02:19:57;43336.50;;;-141.29;100.00
22025;BME280;11176;51.448;6.650;2023-08-12T02:22:23;43336.50;;;-141.29;100.00
22025;BME280;11176;51.448;6.650;2023-08-12T02:24:50;43332.50;;;-141.29;100.00
22025;BME280;11176;51.448;6.650;2023-08-12T02:27:17;43328.50;;;-141.29;100.00
22025;BME280;11176;51.448;6.650;2023-08-12T02:29:44;43320.53;;;-141.29;100.00
22025;BME280;11176;51.448;6.650;2023-08-12T02:32:11;43344.50;;;-141.29;100.00
22025;BME280;11176;51.448;6.650;2023-08-12T02:34:37;43336.50;;;-141.29;100.00
22025;BME280;11176;51.448;6.650;2023-08-12T02:37:04;43334.50;;;-141.29;100.00
22025;BME280;11176;51.448;6.650;2023-08-12T02:39:31;43360.47;;;-141.29;100.00
22025;BME280;11176;51.448;6.650;2023-08-12T02:41:57;43352.47;;;-141.29;100.00
22025;BME280;11176;51.448;6.650;2023-08-12T02:44:24;43364.47;;;-141.29;100.00
22025;BME280;11176;51.448;6.650;2023-08-12T02:46:50;43340.50;;;-141.29;100.00
22025;BME280;11176;51.448;6.650;2023-08-12T02:49:17;43352.47;;;-141.29;100.00
22025;BME280;11176;51.448;6.650;2023-08-12T02:51:43;43352.47;;;-141.29;100.00
22025;BME280;11176;51.448;6.650;2023-08-12T02:54:10;43342.50;;;-141.29;100.00
22025;BME280;11176;51.448;6.650;2023-08-12T02:56:36;43342.50;;;-141.29;100.00
22025;BME280;11176;51.448;6.650;2023-08-12T02:59:03;43344.50;;;-141.29;100.00
22025;BME280;11176;51.448;6.650;2023-08-12T03:01:30;43338.50;;;-141.29;100.00
22025;BME280;11176;51.448;6.650;2023-08-12T03:03:56;43346.50;;;-141.29;100.00
22025;BME280;11176;51.448;6.650;2023-08-12T03:06:23;43368.47;;;-141.29;100.00
22025;BME280;11176;51.448;6.650;2023-08-12T03:08:50;43348.50;;;-141.29;100.00
22025;BME280;11176;51.448;6.650;2023-08-12T03:11:16;43360.47;;;-141.29;100.00
22025;BME280;11176;51.448;6.650;2023-08-12T03:13:45;43356.47;;;-141.29;100.00
22025;BME280;11176;51.448;6.650;2023-08-12T03:16:12;43340.50;;;-141.29;100.00
22025;BME280;11176;51.448;6.650;2023-08-12T03:18:42;43348.50;;;-141.29;100.00
22025;BME280;11176;51.448;6.650;2023-08-12T03:21:10;43352.47;;;-141.29;100.00
22025;BME280;11176;51.448;6.650;2023-08-12T03:23:37;43340.50;;;-141.29;100.00
22025;BME280;11176;51.448;6.650;2023-08-12T03:26:05;43356.47;;;-141.29;100.00
22025;BME280;11176;51.448;6.650;2023-08-12T03:28:33;43360.47;;;-141.29;100.00
22025;BME280;11176;51.448;6.650;2023-08-12T03:30:59;43364.47;;;-141.29;100.00
22025;BME280;11176;51.448;6.650;2023-08-12T03:33:26;43362.47;;;-141.29;100.00
22025;BME280;11176;51.448;6.650;2023-08-12T03:35:54;43360.47;;;-141.29;100.00
22025;BME280;11176;51.448;6.650;2023-08-12T03:38:21;43360.47;;;-141.29;100.00
22025;BME280;11176;51.448;6.650;2023-08-12T03:40:47;43340.50;;;-141.29;100.00
22025;BME280;11176;51.448;6.650;2023-08-12T03:43:16;43352.47;;;-141.29;100.00
22025;BME280;11176;51.448;6.650;2023-08-12T03:45:44;43342.50;;;-141.29;100.00
22025;BME280;11176;51.448;6.650;2023-08-12T03:48:13;43348.50;;;-141.29;100.00
22025;BME280;11176;51.448;6.650;2023-08-12T03:50:41;43340.50;;;-141.29;100.00
22025;BME280;11176;51.448;6.650;2023-08-12T03:53:08;43352.47;;;-141.29;100.00
22025;BME280;11176;51.448;6.650;2023-08-12T03:55:36;43358.47;;;-141.29;100.00
22025;BME280;11176;51.448;6.650;2023-08-12T03:58:03;43360.47;;;-141.29;100.00
22025;BME280;11176;51.448;6.650;2023-08-12T04:00:31;43368.47;;;-141.29;100.00
22025;BME280;11176;51.448;6.650;2023-08-12T04:03:00;43360.47;;;-141.29;100.00
22025;BME280;11176;51.448;6.650;2023-08-12T04:05:27;43364.47;;;-141.29;100.00
22025;BME280;11176;51.448;6.650;2023-08-12T04:07:54;43368.47;;;-141.29;100.00
22025;BME280;11176;51.448;6.650;2023-08-12T04:10:20;43360.47;;;-141.29;100.00
22025;BME280;11176;51.448;6.650;2023-08-12T04:12:47;43364.47;;;-141.29;100.00
22025;BME280;11176;51.448;6.650;2023-08-12T04:15:13;43374.44;;;-141.29;100.00
22025;BME280;11176;51.448;6.650;2023-08-12T04:17:40;43350.47;;;-141.29;100.00
22025;BME280;11176;51.448;6.650;2023-08-12T04:20:08;43368.47;;;-141.29;100.00
22025;BME280;11176;51.448;6.650;2023-08-12T04:22:36;43356.47;;;-141.29;100.00
22025;BME280;11176;51.448;6.650;2023-08-12T04:25:03;43340.50;;;-141.29;100.00
22025;BME280;11176;51.448;6.650;2023-08-12T04:27:30;43364.47;;;-141.29;100.00
22025;BME280;11176;51.448;6.650;2023-08-12T04:29:58;43364.47;;;-141.29;100.00
22025;BME280;11176;51.448;6.650;2023-08-12T04:32:26;43368.47;;;-141.29;100.00
22025;BME280;11176;51.448;6.650;2023-08-12T04:34:53;43374.44;;;-141.29;100.00
22025;BME280;11176;51.448;6.650;2023-08-12T04:37:20;43368.47;;;-141.29;100.00
22025;BME280;11176;51.448;6.650;2023-08-12T04:39:47;43376.44;;;-141.29;100.00
22025;BME280;11176;51.448;6.650;2023-08-12T04:42:13;43368.47;;;-141.29;100.00
22025;BME280;11176;51.448;6.650;2023-08-12T04:44:40;43380.44;;;-141.29;100.00
22025;BME280;11176;51.448;6.650;2023-08-12T04:47:07;43344.50;;;-141.29;100.00
22025;BME280;11176;51.448;6.650;2023-08-12T04:49:36;43380.44;;;-141.29;100.00
22025;BME280;11176;51.448;6.650;2023-08-12T04:52:02;43378.44;;;-141.29;100.00
22025;BME280;11176;51.448;6.650;2023-08-12T04:54:29;43386.44;;;-141.29;100.00
22025;BME280;11176;51.448;6.650;2023-08-12T04:56:55;43384.44;;;-141.29;100.00
22025;BME280;11176;51.448;6.650;2023-08-12T04:59:23;43384.44;;;-141.29;100.00
22025;BME280;11176;51.448;6.650;2023-08-12T05:01:49;43384.44;;;-141.29;100.00
22025;BME280;11176;51.448;6.650;2023-08-12T05:04:30;43368.47;;;-141.29;100.00
22025;BME280;11176;51.448;6.650;2023-08-12T05:06:57;43404.41;;;-141.29;100.00
22025;BME280;11176;51.448;6.650;2023-08-12T05:09:24;43396.41;;;-141.29;100.00
22025;BME280;11176;51.448;6.650;2023-08-12T05:11:51;43384.44;;;-141.29;100.00
22025;BME280;11176;51.448;6.650;2023-08-12T05:14:17;43388.44;;;-141.29;100.00
22025;BME280;11176;51.448;6.650;2023-08-12T05:16:44;43384.44;;;-141.29;100.00
22025;BME280;11176;51.448;6.650;2023-08-12T05:19:10;43386.44;;;-141.29;100.00
22025;BME280;11176;51.448;6.650;2023-08-12T05:21:37;43372.44;;;-141.29;100.00
22025;BME280;11176;51.448;6.650;2023-08-12T05:24:04;43380.44;;;-141.29;100.00
22025;BME280;11176;51.448;6.650;2023-08-12T05:26:33;43384.44;;;-141.29;100.00
22025;BME280;11176;51.448;6.650;2023-08-12T05:28:59;43386.44;;;-141.29;100.00
22025;BME280;11176;51.448;6.650;2023-08-12T05:31:25;43394.41;;;-141.29;100.00
22025;BME280;11176;51.448;6.650;2023-08-12T05:33:52;43388.44;;;-141.29;100.00
22025;BME280;11176;51.448;6.650;2023-08-12T05:36:19;43388.44;;;-141.29;100.00
22025;BME280;11176;51.448;6.650;2023-08-12T05:38:45;43386.44;;;-141.29;100.00
22025;BME280;11176;51.448;6.650;2023-08-12T05:41:11;43378.44;;;-141.29;100.00
22025;BME280;11176;51.448;6.650;2023-08-12T05:43:38;43390.44;;;-141.29;100.00
22025;BME280;11176;51.448;6.650;2023-08-12T05:46:05;43376.44;;;-141.29;100.00
22025;BME280;11176;51.448;6.650;2023-08-12T05:48:31;43382.44;;;-141.29;100.00
22025;BME280;11176;51.448;6.650;2023-08-12T05:50:58;43390.44;;;-141.29;100.00
22025;BME280;11176;51.448;6.650;2023-08-12T05:53:25;43384.44;;;-141.29;100.00
22025;BME280;11176;51.448;6.650;2023-08-12T05:55:51;43390.44;;;-141.29;100.00
22025;BME280;11176;51.448;6.650;2023-08-12T05:58:18;43400.41;;;-141.29;100.00
22025;BME280;11176;51.448;6.650;2023-08-12T06:00:45;43392.44;;;-141.29;100.00
22025;BME280;11176;51.448;6.650;2023-08-12T06:03:12;43380.44;;;-141.29;100.00
22025;BME280;11176;51.448;6.650;2023-08-12T06:05:40;43382.44;;;-141.29;100.00
22025;BME280;11176;51.448;6.650;2023-08-12T06:08:07;43388.44;;;-141.29;100.00
22025;BME280;11176;51.448;6.650;2023-08-12T06:10:34;43386.44;;;-141.29;100.00
22025;BME280;11176;51.448;6.650;2023-08-12T06:13:06;43366.47;;;-141.29;100.00
22025;BME280;11176;51.448;6.650;2023-08-12T06:15:32;43384.44;;;-141.29;100.00
22025;BME280;11176;51.448;6.650;2023-08-12T06:18:02;43404.41;;;-141.29;100.00
22025;BME280;11176;51.448;6.650;2023-08-12T06:20:29;43374.44;;;-141.29;100.00
22025;BME280;11176;51.448;6.650;2023-08-12T06:22:55;43376.44;;;-141.29;100.00
22025;BME280;11176;51.448;6.650;2023-08-12T06:25:22;43368.47;;;-141.29;100.00
22025;BME280;11176;51.448;6.650;2023-08-12T06:27:48;43384.44;;;-141.29;100.00
22025;BME280;11176;51.448;6.650;2023-08-12T06:30:15;43360.47;;;-141.29;100.00
22025;BME280;11176;51.448;6.650;2023-08-12T06:32:41;43360.47;;;-141.29;100.00
22025;BME280;11176;51.448;6.650;2023-08-12T06:35:08;43380.44;;;-141.29;100.00
22025;BME280;11176;51.448;6.650;2023-08-12T06:37:35;43384.44;;;-141.29;100.00
22025;BME280;11176;51.448;6.650;2023-08-12T06:40:03;43380.44;;;-141.29;100.00
22025;BME280;11176;51.448;6.650;2023-08-12T06:42:30;43388.44;;;-141.29;100.00
22025;BME280;11176;51.448;6.650;2023-08-12T06:44:58;43384.44;;;-141.29;100.00
22025;BME280;11176;51.448;6.650;2023-08-12T06:47:25;43380.44;;;-141.29;100.00
22025;BME280;11176;51.448;6.650;2023-08-12T06:49:53;43384.44;;;-141.29;100.00
22025;BME280;11176;51.448;6.650;2023-08-12T06:52:20;43380.44;;;-141.29;100.00
22025;BME280;11176;51.448;6.650;2023-08-12T06:54:46;43374.44;;;-141.29;100.00
22025;BME280;11176;51.448;6.650;2023-08-12T06:57:13;43382.44;;;-141.29;100.00
22025;BME280;11176;51.448;6.650;2023-08-12T06:59:40;43396.41;;;-141.29;100.00
22025;BME280;11176;51.448;6.650;2023-08-12T07:02:06;43368.47;;;-141.29;100.00
22025;BME280;11176;51.448;6.650;2023-08-12T07:04:33;43396.41;;;-141.29;100.00
22025;BME280;11176;51.448;6.650;2023-08-12T07:07:00;43390.44;;;-141.29;100.00
22025;BME280;11176;51.448;6.650;2023-08-12T07:09:26;43368.47;;;-141.29;100.00
22025;BME280;11176;51.448;6.650;2023-08-12T07:11:53;43372.44;;;-141.29;100.00
22025;BME280;11176;51.448;6.650;2023-08-12T07:14:19;43376.44;;;-141.29;100.00
22025;BME280;11176;51.448;6.650;2023-08-12T07:16:46;43386.44;;;-141.29;100.00
22025;BME280;11176;51.448;6.650;2023-08-12T07:19:12;43380.44;;;-141.29;100.00
22025;BME280;11176;51.448;6.650;2023-08-12T07:21:42;43376.44;;;-141.29;100.00
22025;BME280;11176;51.448;6.650;2023-08-12T07:24:08;43380.44;;;-141.29;100.00
22025;BME280;11176;51.448;6.650;2023-08-12T07:26:35;43378.44;;;-141.29;100.00
22025;BME280;11176;51.448;6.650;2023-08-12T07:29:01;43384.44;;;-141.29;100.00
22025;BME280;11176;51.448;6.650;2023-08-12T07:31:28;43368.47;;;-141.29;100.00
22025;BME280;11176;51.448;6.650;2023-08-12T07:33:54;43374.44;;;-141.29;100.00
22025;BME280;11176;51.448;6.650;2023-08-12T07:36:21;43376.44;;;-141.29;100.00
22025;BME280;11176;51.448;6.650;2023-08-12T07:38:47;43384.44;;;-141.29;100.00
22025;BME280;11176;51.448;6.650;2023-08-12T07:41:14;43404.41;;;-141.29;100.00
22025;BME280;11176;51.448;6.650;2023-08-12T07:43:40;43386.44;;;-141.29;100.00
22025;BME280;11176;51.448;6.650;2023-08-12T07:46:06;43372.44;;;-141.29;100.00
22025;BME280;11176;51.448;6.650;2023-08-12T07:48:35;43376.44;;;-141.29;100.00
22025;BME280;11176;51.448;6.650;2023-08-12T07:51:03;43396.41;;;-141.29;100.00
22025;BME280;11176;51.448;6.650;2023-08-12T07:53:30;43384.44;;;-141.29;100.00
22025;BME280;11176;51.448;6.650;2023-08-12T07:55:57;43368.47;;;-141.29;100.00
22025;BME280;11176;51.448;6.650;2023-08-12T07:58:23;43400.41;;;-141.29;100.00
22025;BME280;11176;51.448;6.650;2023-08-12T08:00:52;43388.44;;;-141.29;100.00
22025;BME280;11176;51.448;6.650;2023-08-12T08:03:20;43394.41;;;-141.29;100.00
22025;BME280;11176;51.448;6.650;2023-08-12T08:05:47;43390.44;;;-141.29;100.00
22025;BME280;11176;51.448;6.650;2023-08-12T08:08:14;43402.41;;;-141.29;100.00
22025;BME280;11176;51.448;6.650;2023-08-12T08:10:41;43382.44;;;-141.29;100.00
22025;BME280;11176;51.448;6.650;2023-08-12T08:13:07;43380.44;;;-141.29;100.00
22025;BME280;11176;51.448;6.650;2023-08-12T08:15:34;43392.44;;;-141.29;100.00
22025;BME280;11176;51.448;6.650;2023-08-12T08:18:00;43378.44;;;-141.29;100.00
22025;BME280;11176;51.448;6.650;2023-08-12T08:20:28;43388.44;;;-141.29;100.00
22025;BME280;11176;51.448;6.650;2023-08-12T08:22:55;43376.44;;;-141.29;100.00
22025;BME280;11176;51.448;6.650;2023-08-12T08:25:22;43386.44;;;-141.29;100.00
22025;BME280;11176;51.448;6.650;2023-08-12T08:27:48;43388.44;;;-141.29;100.00
22025;BME280;11176;51.448;6.650;2023-08-12T08:30:15;43396.41;;;-141.29;100.00
22025;BME280;11176;51.448;6.650;2023-08-12T08:32:41;43392.44;;;-141.29;100.00
22025;BME280;11176;51.448;6.650;2023-08-12T08:35:08;43404.41;;;-141.29;100.00
22025;BME280;11176;51.448;6.650;2023-08-12T08:37:34;43376.44;;;-141.29;100.00
22025;BME280;11176;51.448;6.650;2023-08-12T08:40:01;43394.41;;;-141.29;100.00
22025;BME280;11176;51.448;6.650;2023-08-12T08:42:28;43392.44;;;-141.29;100.00
22025;BME280;11176;51.448;6.650;2023-08-12T08:45:00;43410.41;;;-141.29;100.00
22025;BME280;11176;51.448;6.650;2023-08-12T08:47:28;43412.41;;;-141.29;100.00
22025;BME280;11176;51.448;6.650;2023-08-12T08:49:55;43400.41;;;-141.29;100.00
22025;BME280;11176;51.448;6.650;2023-08-12T08:52:23;43400.41;;;-141.29;100.00
22025;BME280;11176;51.448;6.650;2023-08-12T08:54:50;43400.41;;;-141.29;100.00
22025;BME280;11176;51.448;6.650;2023-08-12T08:57:19;43410.41;;;-141.29;100.00
22025;BME280;11176;51.448;6.650;2023-08-12T08:59:50;43388.44;;;-141.29;100.00
22025;BME280;11176;51.448;6.650;2023-08-12T09:02:23;43412.41;;;-141.29;100.00
22025;BME280;11176;51.448;6.650;2023-08-12T09:04:51;43392.44;;;-141.29;100.00
22025;BME280;11176;51.448;6.650;2023-08-12T09:07:18;43400.41;;;-141.29;100.00
22025;BME280;11176;51.448;6.650;2023-08-12T09:09:48;43396.41;;;-141.29;100.00
22025;BME280;11176;51.448;6.650;2023-08-12T09:12:19;43408.41;;;-141.29;100.00
22025;BME280;11176;51.448;6.650;2023-08-12T09:14:46;43392.44;;;-141.29;100.00
22025;BME280;11176;51.448;6.650;2023-08-12T09:17:12;43390.44;;;-141.29;100.00
22025;BME280;11176;51.448;6.650;2023-08-12T09:19:39;43402.41;;;-141.29;100.00
22025;BME280;11176;51.448;6.650;2023-08-12T09:22:07;43388.44;;;-141.29;100.00
22025;BME280;11176;51.448;6.650;2023-08-12T09:24:36;43396.41;;;-141.29;100.00
22025;BME280;11176;51.448;6.650;2023-08-12T09:27:03;43390.44;;;-141.29;100.00
22025;BME280;11176;51.448;6.650;2023-08-12T09:29:30;43388.44;;;-141.29;100.00
22025;BME280;11176;51.448;6.650;2023-08-12T09:32:10;43404.41;;;-141.29;100.00
22025;BME280;11176;51.448;6.650;2023-08-12T09:34:46;43396.41;;;-141.29;100.00
22025;BME280;11176;51.448;6.650;2023-08-12T09:37:13;43386.44;;;-141.29;100.00
22025;BME280;11176;51.448;6.650;2023-08-12T09:39:40;43400.41;;;-141.29;100.00
22025;BME280;11176;51.448;6.650;2023-08-12T09:42:07;43382.44;;;-141.29;100.00
22025;BME280;11176;51.448;6.650;2023-08-12T09:44:41;43392.44;;;-141.29;100.00
22025;BME280;11176;51.448;6.650;2023-08-12T09:47:08;43390.44;;;-141.29;100.00
22025;BME280;11176;51.448;6.650;2023-08-12T09:49:36;43380.44;;;-141.29;100.00
22025;BME280;11176;51.448;6.650;2023-08-12T09:52:03;43400.41;;;-141.29;100.00
22025;BME280;11176;51.448;6.650;2023-08-12T09:54:31;43388.44;;;-141.29;100.00
22025;BME280;11176;51.448;6.650;2023-08-12T09:57:02;43392.44;;;-141.29;100.00
22025;BME280;11176;51.448;6.650;2023-08-12T09:59:34;43392.44;;;-141.29;100.00
22025;BME280;11176;51.448;6.650;2023-08-12T10:02:03;43404.41;;;-141.29;100.00
22025;BME280;11176;51.448;6.650;2023-08-12T10:04:39;43400.41;;;-141.29;100.00
22025;BME280;11176;51.448;6.650;2023-08-12T10:07:09;43384.44;;;-141.29;100.00
22025;BME280;11176;51.448;6.650;2023-08-12T10:09:36;43398.41;;;-141.29;100.00
22025;BME280;11176;51.448;6.650;2023-08-12T10:12:05;43400.41;;;-141.29;100.00
22025;BME280;11176;51.448;6.650;2023-08-12T10:14:33;43372.44;;;-141.29;100.00
22025;BME280;11176;51.448;6.650;2023-08-12T10:17:00;43400.41;;;-141.29;100.00
22025;BME280;11176;51.448;6.650;2023-08-12T10:19:31;43404.41;;;-141.29;100.00
22025;BME280;11176;51.448;6.650;2023-08-12T10:21:59;43392.44;;;-141.29;100.00
22025;BME280;11176;51.448;6.650;2023-08-12T10:24:26;43402.41;;;-141.29;100.00
22025;BME280;11176;51.448;6.650;2023-08-12T10:26:53;43400.41;;;-141.29;100.00
22025;BME280;11176;51.448;6.650;2023-08-12T10:29:22;43392.44;;;-141.29;100.00
22025;BME280;11176;51.448;6.650;2023-08-12T10:31:49;43406.41;;;-141.29;100.00
22025;BME280;11176;51.448;6.650;2023-08-12T10:34:19;43396.41;;;-141.29;100.00
22025;BME280;11176;51.448;6.650;2023-08-12T10:36:46;43396.41;;;-141.29;100.00
22025;BME280;11176;51.448;6.650;2023-08-12T10:39:27;43412.41;;;-141.29;100.00
22025;BME280;11176;51.448;6.650;2023-08-12T10:41:55;43408.41;;;-141.29;100.00
22025;BME280;11176;51.448;6.650;2023-08-12T10:44:26;43400.41;;;-141.29;100.00
22025;BME280;11176;51.448;6.650;2023-08-12T10:46:54;43412.41;;;-141.29;100.00
22025;BME280;11176;51.448;6.650;2023-08-12T10:49:21;43408.41;;;-141.29;100.00
22025;BME280;11176;51.448;6.650;2023-08-12T10:54:23;43404.41;;;-141.29;100.00
22025;BME280;11176;51.448;6.650;2023-08-12T11:04:55;43406.41;;;-141.29;100.00
22025;BME280;11176;51.448;6.650;2023-08-12T11:15:15;43398.41;;;-141.29;100.00
22025;BME280;11176;51.448;6.650;2023-08-12T11:17:42;43396.41;;;-141.29;100.00
22025;BME280;11176;51.448;6.650;2023-08-12T11:20:11;43396.41;;;-141.29;100.00
22025;BME280;11176;51.448;6.650;2023-08-12T11:22:40;43404.41;;;-141.29;100.00
22025;BME280;11176;51.448;6.650;2023-08-12T11:25:07;43380.44;;;-141.29;100.00
22025;BME280;11176;51.448;6.650;2023-08-12T11:27:43;43392.44;;;-141.29;100.00
22025;BME280;11176;51.448;6.650;2023-08-12T11:30:12;43392.44;;;-141.29;100.00
22025;BME280;11176;51.448;6.650;2023-08-12T11:32:39;43390.44;;;-141.29;100.00
22025;BME280;11176;51.448;6.650;2023-08-12T11:35:07;43370.47;;;-141.29;100.00
22025;BME280;11176;51.448;6.650;2023-08-12T11:37:35;43398.41;;;-141.29;100.00
22025;BME280;11176;51.448;6.650;2023-08-12T11:40:04;43376.44;;;-141.29;100.00
22025;BME280;11176;51.448;6.650;2023-08-12T11:42:31;43374.44;;;-141.29;100.00
22025;BME280;11176;51.448;6.650;2023-08-12T11:44:57;43368.47;;;-141.29;100.00
22025;BME280;11176;51.448;6.650;2023-08-12T11:47:24;43384.44;;;-141.29;100.00
22025;BME280;11176;51.448;6.650;2023-08-12T11:49:52;43380.44;;;-141.29;100.00
22025;BME280;11176;51.448;6.650;2023-08-12T11:52:20;43356.47;;;-141.29;100.00
22025;BME280;11176;51.448;6.650;2023-08-12T11:54:48;43376.44;;;-141.29;100.00
22025;BME280;11176;51.448;6.650;2023-08-12T11:57:16;43376.44;;;-141.29;100.00
22025;BME280;11176;51.448;6.650;2023-08-12T11:59:43;43402.41;;;-141.29;100.00
22025;BME280;11176;51.448;6.650;2023-08-12T12:02:10;43392.44;;;-141.29;100.00
22025;BME280;11176;51.448;6.650;2023-08-12T12:04:37;43396.41;;;-141.29;100.00
22025;BME280;11176;51.448;6.650;2023-08-12T12:07:17;43412.41;;;-141.29;100.00
22025;BME280;11176;51.448;6.650;2023-08-12T12:09:43;43404.41;;;-141.29;100.00
22025;BME280;11176;51.448;6.650;2023-08-12T12:12:10;43398.41;;;-141.29;100.00
22025;BME280;11176;51.448;6.650;2023-08-12T12:14:37;43390.44;;;-141.29;100.00
22025;BME280;11176;51.448;6.650;2023-08-12T12:17:08;43394.41;;;-141.29;100.00
22025;BME280;11176;51.448;6.650;2023-08-12T12:19:36;43416.41;;;-141.29;100.00
22025;BME280;11176;51.448;6.650;2023-08-12T12:22:03;43404.41;;;-141.29;100.00
22025;BME280;11176;51.448;6.650;2023-08-12T12:24:32;43424.38;;;-141.29;100.00
22025;BME280;11176;51.448;6.650;2023-08-12T12:27:10;43414.41;;;-141.29;100.00
22025;BME280;11176;51.448;6.650;2023-08-12T12:29:37;43412.41;;;-141.29;100.00
22025;BME280;11176;51.448;6.650;2023-08-12T12:32:03;43420.38;;;-141.29;100.00
22025;BME280;11176;51.448;6.650;2023-08-12T12:34:30;43412.41;;;-141.29;100.00
22025;BME280;11176;51.448;6.650;2023-08-12T12:36:57;43412.41;;;-141.29;100.00
22025;BME280;11176;51.448;6.650;2023-08-12T12:39:23;43418.38;;;-141.29;100.00
22025;BME280;11176;51.448;6.650;2023-08-12T12:41:50;43426.38;;;-141.29;100.00
22025;BME280;11176;51.448;6.650;2023-08-12T12:44:16;43414.41;;;-141.29;100.00
22025;BME280;11176;51.448;6.650;2023-08-12T12:46:43;43404.41;;;-141.29;100.00
22025;BME280;11176;51.448;6.650;2023-08-12T12:49:09;43428.38;;;-141.29;100.00
22025;BME280;11176;51.448;6.650;2023-08-12T12:51:36;43412.41;;;-141.29;100.00